sensor_id;sensor_type;location;lat;lon;timestamp;pressure;altitude;pressure_sealevel;temperature;humidity
84020;BME280;74102;49.084;13.694;2024-01-15T00:00:14;91727.06;;;-2.87;63.27
84020;BME280;74102;49.084;13.694;2024-01-15T00:02:39;91732.03;;;-2.85;62.11
84020;BME280;74102;49.084;13.694;2024-01-15T00:05:05;91727.59;;;-2.83;61.73
84020;BME280;74102;49.084;13.694;2024-01-15T00:07:30;91727.59;;;-2.83;61.81
84020;BME280;74102;49.084;13.694;2024-01-15T00:09:55;91723.81;;;-2.89;60.69
84020;BME280;74102;49.084;13.694;2024-01-15T00:12:21;91715.88;;;-2.86;61.21
84020;BME280;74102;49.084;13.694;2024-01-15T00:14:46;91711.84;;;-2.88;61.49
84020;BME280;74102;49.084;13.694;2024-01-15T00:17:12;91718.41;;;-2.95;61.32
84020;BME280;74102;49.084;13.694;2024-01-15T00:19:38;91725.69;;;-3.00;61.17
84020;BME280;74102;49.084;13.694;2024-01-15T00:22:03;91713.19;;;-3.03;62.85
84020;BME280;74102;49.084;13.694;2024-01-15T00:24:29;91711.41;;;-3.12;61.89
84020;BME280;74102;49.084;13.694;2024-01-15T00:26:54;91713.28;;;-3.14;62.47
84020;BME280;74102;49.084;13.694;2024-01-15T00:29:20;91713.53;;;-3.17;62.98
84020;BME280;74102;49.084;13.694;2024-01-15T00:31:47;91702.78;;;-3.21;63.52
84020;BME280;74102;49.084;13.694;2024-01-15T00:34:12;91716.78;;;-3.25;63.75
84020;BME280;74102;49.084;13.694;2024-01-15T00:36:37;91712.19;;;-3.31;63.63
84020;BME280;74102;49.084;13.694;2024-01-15T00:39:03;91718.09;;;-3.31;63.84
84020;BME280;74102;49.084;13.694;2024-01-15T00:41:30;91713.94;;;-3.32;63.71
84020;BME280;74102;49.084;13.694;2024-01-15T00:43:56;91715.94;;;-3.35;63.61
84020;BME280;74102;49.084;13.694;2024-01-15T00:46:21;91714.31;;;-3.36;64.82
84020;BME280;74102;49.084;13.694;2024-01-15T00:48:47;91712.19;;;-3.41;64.32
84020;BME280;74102;49.084;13.694;2024-01-15T00:51:12;91711.47;;;-3.43;64.66
84020;BME280;74102;49.084;13.694;2024-01-15T00:53:38;91720.88;;;-3.43;64.81
84020;BME280;74102;49.084;13.694;2024-01-15T00:56:04;91722.91;;;-3.47;65.76
84020;BME280;74102;49.084;13.694;2024-01-15T00:58:29;91713.06;;;-3.51;65.50
84020;BME280;74102;49.084;13.694;2024-01-15T01:00:55;91705.13;;;-3.58;66.14
84020;BME280;74102;49.084;13.694;2024-01-15T01:03:20;91694.31;;;-3.71;65.94
84020;BME280;74102;49.084;13.694;2024-01-15T01:05:48;91701.03;;;-3.80;66.11
84020;BME280;74102;49.084;13.694;2024-01-15T01:08:14;91702.31;;;-3.85;66.87
84020;BME280;74102;49.084;13.694;2024-01-15T01:10:39;91693.47;;;-3.81;67.27
84020;BME280;74102;49.084;13.694;2024-01-15T01:13:05;91695.09;;;-3.80;67.05
84020;BME280;74102;49.084;13.694;2024-01-15T01:15:30;91683.16;;;-3.80;68.07
84020;BME280;74102;49.084;13.694;2024-01-15T01:17:55;91681.66;;;-3.82;67.41
84020;BME280;74102;49.084;13.694;2024-01-15T01:20:21;91688.63;;;-3.84;67.84
84020;BME280;74102;49.084;13.694;2024-01-15T01:22:46;91695.06;;;-3.90;67.39
84020;BME280;74102;49.084;13.694;2024-01-15T01:25:12;91697.84;;;-4.02;67.30
84020;BME280;74102;49.084;13.694;2024-01-15T01:27:37;91704.50;;;-4.11;67.80
84020;BME280;74102;49.084;13.694;2024-01-15T01:30:03;91695.56;;;-4.26;67.24
84020;BME280;74102;49.084;13.694;2024-01-15T01:32:28;91698.56;;;-4.42;67.50
84020;BME280;74102;49.084;13.694;2024-01-15T01:34:54;91693.97;;;-4.48;67.96
84020;BME280;74102;49.084;13.694;2024-01-15T01:37:19;91696.31;;;-4.56;67.57
84020;BME280;74102;49.084;13.694;2024-01-15T01:39:45;91702.16;;;-4.65;68.47
84020;BME280;74102;49.084;13.694;2024-01-15T01:42:11;91699.44;;;-4.73;68.85
84020;BME280;74102;49.084;13.694;2024-01-15T01:44:37;91689.47;;;-4.76;69.38
84020;BME280;74102;49.084;13.694;2024-01-15T01:47:03;91681.13;;;-4.78;69.77
84020;BME280;74102;49.084;13.694;2024-01-15T01:49:29;91695.88;;;-4.82;69.62
84020;BME280;74102;49.084;13.694;2024-01-15T01:52:00;91699.47;;;-4.84;70.07
84020;BME280;74102;49.084;13.694;2024-01-15T01:54:31;91702.50;;;-4.90;70.45
84020;BME280;74102;49.084;13.694;2024-01-15T01:56:57;91721.28;;;-4.91;71.83
84020;BME280;74102;49.084;13.694;2024-01-15T01:59:23;91716.81;;;-4.78;72.00
84020;BME280;74102;49.084;13.694;2024-01-15T02:01:50;91703.38;;;-4.69;71.42
84020;BME280;74102;49.084;13.694;2024-01-15T02:04:17;91703.78;;;-4.64;73.12
84020;BME280;74102;49.084;13.694;2024-01-15T02:06:42;91698.19;;;-4.58;72.65
84020;BME280;74102;49.084;13.694;2024-01-15T02:09:08;91704.66;;;-4.54;72.77
84020;BME280;74102;49.084;13.694;2024-01-15T02:11:35;91705.53;;;-4.44;72.44
84020;BME280;74102;49.084;13.694;2024-01-15T02:14:00;91689.03;;;-4.40;72.48
84020;BME280;74102;49.084;13.694;2024-01-15T02:16:26;91699.94;;;-4.38;71.62
84020;BME280;74102;49.084;13.694;2024-01-15T02:18:51;91699.94;;;-4.38;71.89
84020;BME280;74102;49.084;13.694;2024-01-15T02:21:16;91692.63;;;-4.42;72.62
84020;BME280;74102;49.084;13.694;2024-01-15T02:23:42;91687.84;;;-4.36;71.69
84020;BME280;74102;49.084;13.694;2024-01-15T02:26:07;91690.41;;;-4.36;71.69
84020;BME280;74102;49.084;13.694;2024-01-15T02:28:33;91699.94;;;-4.38;71.95
84020;BME280;74102;49.084;13.694;2024-01-15T02:30:59;91676.97;;;-4.38;72.59
84020;BME280;74102;49.084;13.694;2024-01-15T02:33:24;91662.34;;;-4.36;72.60
84020;BME280;74102;49.084;13.694;2024-01-15T02:35:50;91663.03;;;-4.34;72.64
84020;BME280;74102;49.084;13.694;2024-01-15T02:38:16;91671.34;;;-4.32;72.56
84020;BME280;74102;49.084;13.694;2024-01-15T02:40:42;91658.34;;;-4.29;72.61
84020;BME280;74102;49.084;13.694;2024-01-15T02:43:08;91678.66;;;-4.27;72.83
84020;BME280;74102;49.084;13.694;2024-01-15T02:45:33;91655.44;;;-4.24;72.70
84020;BME280;74102;49.084;13.694;2024-01-15T02:47:58;91663.38;;;-4.17;72.78
84020;BME280;74102;49.084;13.694;2024-01-15T02:50:24;91678.69;;;-4.17;73.27
84020;BME280;74102;49.084;13.694;2024-01-15T02:52:49;91657.06;;;-4.13;73.25
84020;BME280;74102;49.084;13.694;2024-01-15T02:55:15;91667.47;;;-4.05;72.59
84020;BME280;74102;49.084;13.694;2024-01-15T02:57:40;91655.00;;;-3.99;72.63
84020;BME280;74102;49.084;13.694;2024-01-15T03:00:06;91666.16;;;-3.90;72.10
84020;BME280;74102;49.084;13.694;2024-01-15T03:02:32;91673.03;;;-3.81;72.35
84020;BME280;74102;49.084;13.694;2024-01-15T03:04:58;91682.75;;;-3.75;72.17
84020;BME280;74102;49.084;13.694;2024-01-15T03:07:23;91697.44;;;-3.67;72.37
84020;BME280;74102;49.084;13.694;2024-01-15T03:09:48;91697.06;;;-3.63;72.30
84020;BME280;74102;49.084;13.694;2024-01-15T03:12:14;91713.44;;;-3.56;72.85
84020;BME280;74102;49.084;13.694;2024-01-15T03:14:39;91715.34;;;-3.58;72.71
84020;BME280;74102;49.084;13.694;2024-01-15T03:17:04;91720.72;;;-3.61;72.74
84020;BME280;74102;49.084;13.694;2024-01-15T03:19:30;91722.75;;;-3.55;73.20
84020;BME280;74102;49.084;13.694;2024-01-15T03:21:56;91728.25;;;-3.50;72.94
84020;BME280;74102;49.084;13.694;2024-01-15T03:24:21;91734.06;;;-3.48;73.16
84020;BME280;74102;49.084;13.694;2024-01-15T03:26:47;91727.78;;;-3.44;72.75
84020;BME280;74102;49.084;13.694;2024-01-15T03:29:12;91722.91;;;-3.47;73.61
84020;BME280;74102;49.084;13.694;2024-01-15T03:31:37;91727.78;;;-3.44;73.73
84020;BME280;74102;49.084;13.694;2024-01-15T03:34:03;91717.53;;;-3.44;73.82
84020;BME280;74102;49.084;13.694;2024-01-15T03:36:29;91715.66;;;-3.42;73.56
84020;BME280;74102;49.084;13.694;2024-01-15T03:38:54;91708.38;;;-3.46;73.21
84020;BME280;74102;49.084;13.694;2024-01-15T03:41:20;91706.88;;;-3.49;73.63
84020;BME280;74102;49.084;13.694;2024-01-15T03:43:45;91699.22;;;-3.49;73.34
84020;BME280;74102;49.084;13.694;2024-01-15T03:46:10;91694.38;;;-3.52;73.38
84020;BME280;74102;49.084;13.694;2024-01-15T03:48:36;91684.16;;;-3.52;73.58
84020;BME280;74102;49.084;13.694;2024-01-15T03:51:01;91687.66;;;-3.53;73.29
84020;BME280;74102;49.084;13.694;2024-01-15T03:53:27;91675.56;;;-3.51;72.91
84020;BME280;74102;49.084;13.694;2024-01-15T03:55:52;91668.03;;;-3.52;72.56
84020;BME280;74102;49.084;13.694;2024-01-15T03:58:18;91668.03;;;-3.52;73.20
84020;BME280;74102;49.084;13.694;2024-01-15T04:00:43;91663.97;;;-3.55;72.80
84020;BME280;74102;49.084;13.694;2024-01-15T04:03:09;91691.53;;;-3.58;72.83
84020;BME280;74102;49.084;13.694;2024-01-15T04:05:35;91704.47;;;-3.60;72.91
84020;BME280;74102;49.084;13.694;2024-01-15T04:08:00;91704.94;;;-3.66;72.95
84020;BME280;74102;49.084;13.694;2024-01-15T04:10:25;91699.16;;;-3.68;73.20
84020;BME280;74102;49.084;13.694;2024-01-15T04:12:51;91690.31;;;-3.64;73.26
84020;BME280;74102;49.084;13.694;2024-01-15T04:15:16;91684.41;;;-3.64;73.15
84020;BME280;74102;49.084;13.694;2024-01-15T04:17:42;91674.19;;;-3.64;73.34
84020;BME280;74102;49.084;13.694;2024-01-15T04:20:08;91665.19;;;-3.59;73.48
84020;BME280;74102;49.084;13.694;2024-01-15T04:22:36;91671.91;;;-3.58;73.27
84020;BME280;74102;49.084;13.694;2024-01-15T04:25:02;91660.75;;;-3.57;73.03
84020;BME280;74102;49.084;13.694;2024-01-15T04:27:27;91671.25;;;-3.60;73.53
84020;BME280;74102;49.084;13.694;2024-01-15T04:29:53;91656.31;;;-3.55;74.01
84020;BME280;74102;49.084;13.694;2024-01-15T04:32:18;91661.16;;;-3.52;74.05
84020;BME280;74102;49.084;13.694;2024-01-15T04:34:44;91651.63;;;-3.50;73.61
84020;BME280;74102;49.084;13.694;2024-01-15T04:37:09;91649.75;;;-3.48;74.00
84020;BME280;74102;49.084;13.694;2024-01-15T04:39:35;91657.28;;;-3.46;73.93
84020;BME280;74102;49.084;13.694;2024-01-15T04:42:00;91670.84;;;-3.46;74.61
84020;BME280;74102;49.084;13.694;2024-01-15T04:44:25;91686.44;;;-3.49;74.27
84020;BME280;74102;49.084;13.694;2024-01-15T04:46:51;91690.47;;;-3.56;75.35
84020;BME280;74102;49.084;13.694;2024-01-15T04:49:16;91676.34;;;-3.60;75.63
84020;BME280;74102;49.084;13.694;2024-01-15T04:51:41;91676.09;;;-3.57;75.92
84020;BME280;74102;49.084;13.694;2024-01-15T04:54:07;91656.22;;;-3.53;75.67
84020;BME280;74102;49.084;13.694;2024-01-15T04:56:32;91662.09;;;-3.53;75.69
84020;BME280;74102;49.084;13.694;2024-01-15T04:58:58;91662.34;;;-3.56;75.90
84020;BME280;74102;49.084;13.694;2024-01-15T05:01:23;91667.09;;;-3.51;76.09
84020;BME280;74102;49.084;13.694;2024-01-15T05:03:48;91663.59;;;-3.50;76.33
84020;BME280;74102;49.084;13.694;2024-01-15T05:06:14;91654.88;;;-3.48;75.29
84020;BME280;74102;49.084;13.694;2024-01-15T05:08:40;91663.88;;;-3.44;75.71
84020;BME280;74102;49.084;13.694;2024-01-15T05:11:05;91675.03;;;-3.45;75.30
84020;BME280;74102;49.084;13.694;2024-01-15T05:13:30;91682.44;;;-3.42;74.39
84020;BME280;74102;49.084;13.694;2024-01-15T05:15:56;91691.72;;;-3.41;74.24
84020;BME280;74102;49.084;13.694;2024-01-15T05:18:21;91714.84;;;-3.42;74.36
84020;BME280;74102;49.084;13.694;2024-01-15T05:20:47;91695.47;;;-3.45;74.22
84020;BME280;74102;49.084;13.694;2024-01-15T05:23:12;91707.81;;;-3.50;73.20
84020;BME280;74102;49.084;13.694;2024-01-15T05:25:37;91703.38;;;-3.57;72.45
84020;BME280;74102;49.084;13.694;2024-01-15T05:28:05;91710.75;;;-3.64;71.64
84020;BME280;74102;49.084;13.694;2024-01-15T05:30:30;91701.06;;;-3.70;71.36
84020;BME280;74102;49.084;13.694;2024-01-15T05:32:56;91721.75;;;-3.73;71.90
84020;BME280;74102;49.084;13.694;2024-01-15T05:35:22;91702.63;;;-3.79;72.12
84020;BME280;74102;49.084;13.694;2024-01-15T05:37:48;91708.78;;;-3.81;72.77
84020;BME280;74102;49.084;13.694;2024-01-15T05:40:13;91707.44;;;-3.85;72.74
84020;BME280;74102;49.084;13.694;2024-01-15T05:42:39;91710.94;;;-3.86;72.84
84020;BME280;74102;49.084;13.694;2024-01-15T05:45:06;91709.31;;;-3.87;73.22
84020;BME280;74102;49.084;13.694;2024-01-15T05:47:31;91703.28;;;-3.86;73.54
84020;BME280;74102;49.084;13.694;2024-01-15T05:49:57;91697.00;;;-3.82;74.44
84020;BME280;74102;49.084;13.694;2024-01-15T05:52:23;91699.25;;;-3.89;74.15
84020;BME280;74102;49.084;13.694;2024-01-15T05:54:49;91694.75;;;-3.96;75.05
84020;BME280;74102;49.084;13.694;2024-01-15T05:57:14;91695.03;;;-3.99;75.18
84020;BME280;74102;49.084;13.694;2024-01-15T05:59:40;91697.84;;;-4.02;75.56
84020;BME280;74102;49.084;13.694;2024-01-15T06:02:05;91753.03;;;-4.01;75.29
84020;BME280;74102;49.084;13.694;2024-01-15T06:04:31;91715.56;;;-4.01;76.08
84020;BME280;74102;49.084;13.694;2024-01-15T06:06:56;91724.84;;;-4.00;75.87
84020;BME280;74102;49.084;13.694;2024-01-15T06:09:21;91734.25;;;-4.00;76.01
84020;BME280;74102;49.084;13.694;2024-01-15T06:11:47;91725.81;;;-3.91;75.86
84020;BME280;74102;49.084;13.694;2024-01-15T06:14:13;91735.66;;;-3.87;75.98
84020;BME280;74102;49.084;13.694;2024-01-15T06:16:38;91727.84;;;-3.85;76.25
84020;BME280;74102;49.084;13.694;2024-01-15T06:19:03;91723.84;;;-3.78;75.65
84020;BME280;74102;49.084;13.694;2024-01-15T06:21:29;91722.00;;;-3.76;76.35
84020;BME280;74102;49.084;13.694;2024-01-15T06:23:54;91730.34;;;-3.74;76.02
84020;BME280;74102;49.084;13.694;2024-01-15T06:26:22;91731.16;;;-3.74;76.02
84020;BME280;74102;49.084;13.694;2024-01-15T06:28:47;91736.13;;;-3.72;75.64
84020;BME280;74102;49.084;13.694;2024-01-15T06:31:13;91742.84;;;-3.71;76.36
84020;BME280;74102;49.084;13.694;2024-01-15T06:33:38;91742.44;;;-3.76;76.38
84020;BME280;74102;49.084;13.694;2024-01-15T06:36:04;91730.06;;;-3.71;76.59
84020;BME280;74102;49.084;13.694;2024-01-15T06:38:30;91716.91;;;-3.76;76.57
84020;BME280;74102;49.084;13.694;2024-01-15T06:40:56;91721.75;;;-3.73;76.29
84020;BME280;74102;49.084;13.694;2024-01-15T06:43:21;91702.91;;;-3.72;76.18
84020;BME280;74102;49.084;13.694;2024-01-15T06:45:47;91702.66;;;-3.69;76.00
84020;BME280;74102;49.084;13.694;2024-01-15T06:48:12;91712.34;;;-3.72;75.99
84020;BME280;74102;49.084;13.694;2024-01-15T06:50:40;91711.53;;;-3.73;76.11
84020;BME280;74102;49.084;13.694;2024-01-15T06:53:05;91706.13;;;-3.80;76.71
84020;BME280;74102;49.084;13.694;2024-01-15T06:55:30;91704.78;;;-3.74;77.08
84020;BME280;74102;49.084;13.694;2024-01-15T06:57:56;91712.59;;;-3.66;76.61
84020;BME280;74102;49.084;13.694;2024-01-15T07:00:22;91698.91;;;-3.65;76.89
84020;BME280;74102;49.084;13.694;2024-01-15T07:02:47;91712.50;;;-3.64;76.61
84020;BME280;74102;49.084;13.694;2024-01-15T07:05:12;91683.59;;;-3.65;77.46
84020;BME280;74102;49.084;13.694;2024-01-15T07:07:38;91695.44;;;-3.64;77.00
84020;BME280;74102;49.084;13.694;2024-01-15T07:10:04;91708.31;;;-3.65;77.32
84020;BME280;74102;49.084;13.694;2024-01-15T07:12:30;91710.75;;;-3.64;76.63
84020;BME280;74102;49.084;13.694;2024-01-15T07:14:56;91716.78;;;-3.65;76.27
84020;BME280;74102;49.084;13.694;2024-01-15T07:17:21;91714.78;;;-3.61;76.37
84020;BME280;74102;49.084;13.694;2024-01-15T07:19:47;91707.00;;;-3.60;76.07
84020;BME280;74102;49.084;13.694;2024-01-15T07:22:12;91698.66;;;-3.62;75.01
84020;BME280;74102;49.084;13.694;2024-01-15T07:24:38;91703.75;;;-3.62;75.28
84020;BME280;74102;49.084;13.694;2024-01-15T07:27:04;91725.81;;;-3.61;75.65
84020;BME280;74102;49.084;13.694;2024-01-15T07:29:30;91714.53;;;-3.58;75.18
84020;BME280;74102;49.084;13.694;2024-01-15T07:31:58;91720.44;;;-3.58;75.05
84020;BME280;74102;49.084;13.694;2024-01-15T07:34:23;91721.94;;;-3.55;74.71
84020;BME280;74102;49.084;13.694;2024-01-15T07:36:49;91714.25;;;-3.55;74.90
84020;BME280;74102;49.084;13.694;2024-01-15T07:39:14;91723.16;;;-3.50;75.19
84020;BME280;74102;49.084;13.694;2024-01-15T07:41:40;91721.41;;;-3.49;75.07
84020;BME280;74102;49.084;13.694;2024-01-15T07:44:05;91719.16;;;-3.43;75.17
84020;BME280;74102;49.084;13.694;2024-01-15T07:46:30;91718.88;;;-3.40;75.14
84020;BME280;74102;49.084;13.694;2024-01-15T07:48:56;91725.34;;;-3.36;75.13
84020;BME280;74102;49.084;13.694;2024-01-15T07:51:23;91723.19;;;-3.31;75.29
84020;BME280;74102;49.084;13.694;2024-01-15T07:53:49;91729.69;;;-3.27;75.18
84020;BME280;74102;49.084;13.694;2024-01-15T07:56:14;91725.34;;;-3.36;75.44
84020;BME280;74102;49.084;13.694;2024-01-15T07:58:40;91719.97;;;-3.33;75.64
84020;BME280;74102;49.084;13.694;2024-01-15T08:01:05;91714.22;;;-3.25;76.01
84020;BME280;74102;49.084;13.694;2024-01-15T08:03:31;91717.59;;;-3.25;76.15
84020;BME280;74102;49.084;13.694;2024-01-15T08:05:57;91715.97;;;-3.26;75.73
84020;BME280;74102;49.084;13.694;2024-01-15T08:08:25;91713.81;;;-3.21;75.47
84020;BME280;74102;49.084;13.694;2024-01-15T08:10:52;91682.31;;;-3.31;76.06
84020;BME280;74102;49.084;13.694;2024-01-15T08:13:17;91689.75;;;-3.28;75.50
84020;BME280;74102;49.084;13.694;2024-01-15T08:15:43;91678.56;;;-3.27;75.38
84020;BME280;74102;49.084;13.694;2024-01-15T08:18:08;91672.50;;;-3.26;75.15
84020;BME280;74102;49.084;13.694;2024-01-15T08:20:34;91682.06;;;-3.28;75.56
84020;BME280;74102;49.084;13.694;2024-01-15T08:23:00;91680.19;;;-3.26;74.99
84020;BME280;74102;49.084;13.694;2024-01-15T08:25:25;91690.94;;;-3.32;76.12
84020;BME280;74102;49.084;13.694;2024-01-15T08:27:51;91691.75;;;-3.31;75.82
84020;BME280;74102;49.084;13.694;2024-01-15T08:30:17;91682.59;;;-3.24;75.86
84020;BME280;74102;49.084;13.694;2024-01-15T08:32:44;91691.06;;;-3.24;76.17
84020;BME280;74102;49.084;13.694;2024-01-15T08:35:10;91689.06;;;-3.20;76.25
84020;BME280;74102;49.084;13.694;2024-01-15T08:37:35;91703.06;;;-3.14;75.65
84020;BME280;74102;49.084;13.694;2024-01-15T08:40:01;91663.50;;;-3.20;75.82
84020;BME280;74102;49.084;13.694;2024-01-15T08:42:27;91674.00;;;-3.13;76.04
84020;BME280;74102;49.084;13.694;2024-01-15T08:44:52;91674.81;;;-3.03;74.68
84020;BME280;74102;49.084;13.694;2024-01-15T08:47:17;91674.94;;;-2.95;74.70
84020;BME280;74102;49.084;13.694;2024-01-15T08:49:43;91651.00;;;-2.85;74.02
84020;BME280;74102;49.084;13.694;2024-01-15T08:52:10;91661.66;;;-2.80;74.30
84020;BME280;74102;49.084;13.694;2024-01-15T08:54:35;91668.34;;;-2.69;74.08
84020;BME280;74102;49.084;13.694;2024-01-15T08:57:01;91668.06;;;-2.66;73.51
84020;BME280;74102;49.084;13.694;2024-01-15T08:59:27;91655.16;;;-2.55;73.20
84020;BME280;74102;49.084;13.694;2024-01-15T09:01:52;91642.09;;;-2.52;72.88
84020;BME280;74102;49.084;13.694;2024-01-15T09:04:18;91641.16;;;-2.51;72.82
84020;BME280;74102;49.084;13.694;2024-01-15T09:06:47;91652.44;;;-2.44;72.35
84020;BME280;74102;49.084;13.694;2024-01-15T09:09:13;91668.19;;;-2.39;72.72
84020;BME280;74102;49.084;13.694;2024-01-15T09:11:40;91671.81;;;-2.32;72.38
84020;BME280;74102;49.084;13.694;2024-01-15T09:14:05;91680.28;;;-2.22;71.45
84020;BME280;74102;49.084;13.694;2024-01-15T09:16:31;91680.94;;;-2.20;70.58
84020;BME280;74102;49.084;13.694;2024-01-15T09:18:56;91686.59;;;-2.16;71.25
84020;BME280;74102;49.084;13.694;2024-01-15T09:21:22;91674.44;;;-2.04;71.23
84020;BME280;74102;49.084;13.694;2024-01-15T09:23:49;91688.19;;;-2.05;70.99
84020;BME280;74102;49.084;13.694;2024-01-15T09:26:15;91675.78;;;-2.00;71.00
84020;BME280;74102;49.084;13.694;2024-01-15T09:28:40;91674.28;;;-1.93;70.83
84020;BME280;74102;49.084;13.694;2024-01-15T09:31:06;91675.72;;;-1.81;71.14
84020;BME280;74102;49.084;13.694;2024-01-15T09:33:31;91685.03;;;-1.80;70.93
84020;BME280;74102;49.084;13.694;2024-01-15T09:35:56;91676.53;;;-1.81;70.67
84020;BME280;74102;49.084;13.694;2024-01-15T09:38:22;91669.38;;;-1.77;70.60
84020;BME280;74102;49.084;13.694;2024-01-15T09:40:49;91656.13;;;-1.73;71.36
84020;BME280;74102;49.084;13.694;2024-01-15T09:43:16;91662.72;;;-1.70;71.14
84020;BME280;74102;49.084;13.694;2024-01-15T09:45:42;91665.56;;;-1.73;71.78
84020;BME280;74102;49.084;13.694;2024-01-15T09:48:09;91669.09;;;-1.74;71.82
84020;BME280;74102;49.084;13.694;2024-01-15T09:50:34;91687.09;;;-1.66;71.34
84020;BME280;74102;49.084;13.694;2024-01-15T09:53:00;91686.44;;;-1.68;70.73
84020;BME280;74102;49.084;13.694;2024-01-15T09:55:26;91681.91;;;-1.74;69.88
84020;BME280;74102;49.084;13.694;2024-01-15T09:57:52;91687.22;;;-1.58;69.14
84020;BME280;74102;49.084;13.694;2024-01-15T10:00:19;91687.72;;;-1.45;68.65
84020;BME280;74102;49.084;13.694;2024-01-15T10:02:45;91676.53;;;-1.09;67.99
84020;BME280;74102;49.084;13.694;2024-01-15T10:05:10;91688.00;;;-0.85;66.76
84020;BME280;74102;49.084;13.694;2024-01-15T10:07:37;91694.53;;;-0.73;66.36
84020;BME280;74102;49.084;13.694;2024-01-15T10:10:03;91688.72;;;-0.93;66.82
84020;BME280;74102;49.084;13.694;2024-01-15T10:12:28;91686.16;;;-1.11;67.60
84020;BME280;74102;49.084;13.694;2024-01-15T10:14:55;91686.44;;;-1.14;67.90
84020;BME280;74102;49.084;13.694;2024-01-15T10:17:21;91693.56;;;-1.35;68.65
84020;BME280;74102;49.084;13.694;2024-01-15T10:19:46;91699.31;;;-1.50;70.24
84020;BME280;74102;49.084;13.694;2024-01-15T10:22:14;91687.25;;;-1.68;70.07
84020;BME280;74102;49.084;13.694;2024-01-15T10:24:40;91693.09;;;-1.75;70.75
84020;BME280;74102;49.084;13.694;2024-01-15T10:27:10;91696.50;;;-1.84;70.25
84020;BME280;74102;49.084;13.694;2024-01-15T10:29:35;91688.81;;;-1.84;70.77
84020;BME280;74102;49.084;13.694;2024-01-15T10:32:02;91681.94;;;-1.84;70.55
84020;BME280;74102;49.084;13.694;2024-01-15T10:34:28;91686.34;;;-1.76;70.43
84020;BME280;74102;49.084;13.694;2024-01-15T10:36:54;91686.78;;;-1.81;70.20
84020;BME280;74102;49.084;13.694;2024-01-15T10:39:22;91689.38;;;-1.90;70.64
84020;BME280;74102;49.084;13.694;2024-01-15T10:41:51;91686.72;;;-1.71;70.57
84020;BME280;74102;49.084;13.694;2024-01-15T10:44:17;91670.50;;;-1.62;70.77
84020;BME280;74102;49.084;13.694;2024-01-15T10:46:44;91657.53;;;-1.51;70.25
84020;BME280;74102;49.084;13.694;2024-01-15T10:49:11;91656.53;;;-1.23;70.01
84020;BME280;74102;49.084;13.694;2024-01-15T10:51:37;91646.44;;;-1.07;68.61
84020;BME280;74102;49.084;13.694;2024-01-15T10:54:03;91655.81;;;-1.15;68.52
84020;BME280;74102;49.084;13.694;2024-01-15T10:56:31;91670.47;;;-1.08;68.73
84020;BME280;74102;49.084;13.694;2024-01-15T10:58:58;91670.78;;;-1.11;69.42
84020;BME280;74102;49.084;13.694;2024-01-15T11:01:24;91634.56;;;-1.08;68.88
84020;BME280;74102;49.084;13.694;2024-01-15T11:03:49;91657.78;;;-1.27;69.32
84020;BME280;74102;49.084;13.694;2024-01-15T11:06:18;91651.88;;;-1.10;68.99
84020;BME280;74102;49.084;13.694;2024-01-15T11:08:51;91636.94;;;-0.96;68.72
84020;BME280;74102;49.084;13.694;2024-01-15T11:11:17;91646.00;;;-0.84;68.29
84020;BME280;74102;49.084;13.694;2024-01-15T11:13:45;91643.63;;;-0.60;68.11
84020;BME280;74102;49.084;13.694;2024-01-15T11:16:13;91647.66;;;-0.58;67.68
84020;BME280;74102;49.084;13.694;2024-01-15T11:18:48;91661.13;;;-0.38;66.77
84020;BME280;74102;49.084;13.694;2024-01-15T11:21:27;91676.19;;;0.00;66.09
84020;BME280;74102;49.084;13.694;2024-01-15T11:29:10;91650.09;;;0.47;64.61
84020;BME280;74102;49.084;13.694;2024-01-15T11:34:04;91631.66;;;0.68;64.45
84020;BME280;74102;49.084;13.694;2024-01-15T11:42:02;91654.28;;;0.48;63.78
84020;BME280;74102;49.084;13.694;2024-01-15T11:44:30;91664.72;;;0.46;62.73
84020;BME280;74102;49.084;13.694;2024-01-15T11:47:00;91654.38;;;0.05;64.04
84020;BME280;74102;49.084;13.694;2024-01-15T11:49:58;91667.69;;;-0.26;64.29
84020;BME280;74102;49.084;13.694;2024-01-15T11:52:25;91638.56;;;-0.09;65.57
84020;BME280;74102;49.084;13.694;2024-01-15T12:00:11;91630.78;;;0.09;65.72
84020;BME280;74102;49.084;13.694;2024-01-15T12:02:41;91639.16;;;-0.15;65.96
84020;BME280;74102;49.084;13.694;2024-01-15T12:05:15;91636.44;;;-0.39;67.03
84020;BME280;74102;49.084;13.694;2024-01-15T12:07:42;91647.75;;;-0.67;68.21
84020;BME280;74102;49.084;13.694;2024-01-15T12:10:15;91651.56;;;-0.89;68.89
84020;BME280;74102;49.084;13.694;2024-01-15T12:13:02;91656.31;;;-1.12;69.34
84020;BME280;74102;49.084;13.694;2024-01-15T12:15:30;91657.28;;;-1.13;69.05
84020;BME280;74102;49.084;13.694;2024-01-15T12:17:57;91664.88;;;-1.21;69.72
84020;BME280;74102;49.084;13.694;2024-01-15T12:20:27;91655.59;;;-1.49;70.65
84020;BME280;74102;49.084;13.694;2024-01-15T12:22:53;91652.41;;;-1.51;71.65
84020;BME280;74102;49.084;13.694;2024-01-15T12:25:20;91652.88;;;-1.47;71.17
84020;BME280;74102;49.084;13.694;2024-01-15T12:27:46;91655.31;;;-1.46;70.98
84020;BME280;74102;49.084;13.694;2024-01-15T12:30:14;91644.13;;;-1.45;71.08
84020;BME280;74102;49.084;13.694;2024-01-15T12:32:41;91660.81;;;-1.41;71.02
84020;BME280;74102;49.084;13.694;2024-01-15T12:35:07;91655.97;;;-1.44;70.86
84020;BME280;74102;49.084;13.694;2024-01-15T12:37:35;91640.22;;;-1.49;70.88
84020;BME280;74102;49.084;13.694;2024-01-15T12:40:01;91642.78;;;-1.49;71.22
84020;BME280;74102;49.084;13.694;2024-01-15T12:42:28;91636.63;;;-1.56;71.64
84020;BME280;74102;49.084;13.694;2024-01-15T12:44:56;91630.56;;;-1.55;71.19
84020;BME280;74102;49.084;13.694;2024-01-15T12:47:22;91636.09;;;-1.60;71.56
84020;BME280;74102;49.084;13.694;2024-01-15T12:49:48;91627.78;;;-1.44;71.79
84020;BME280;74102;49.084;13.694;2024-01-15T12:52:19;91631.38;;;-1.54;71.09
84020;BME280;74102;49.084;13.694;2024-01-15T12:54:44;91631.31;;;-1.45;71.51
84020;BME280;74102;49.084;13.694;2024-01-15T12:57:09;91633.19;;;-1.47;70.93
84020;BME280;74102;49.084;13.694;2024-01-15T12:59:35;91625.94;;;-1.51;71.43
84020;BME280;74102;49.084;13.694;2024-01-15T13:02:00;91635.09;;;-1.49;71.36